createdAt,value
2022-12-24T00:00:38.519Z,11.00
2022-12-24T00:03:05.412Z,11.00
2022-12-24T00:05:32.422Z,11.00
2022-12-24T00:07:59.639Z,11.00
2022-12-24T00:10:26.353Z,11.00
2022-12-24T00:12:53.227Z,11.00
2022-12-24T00:15:19.880Z,10.90
2022-12-24T00:17:49.053Z,10.90
2022-12-24T00:20:16.132Z,11.00
2022-12-24T00:22:42.853Z,11.00
2022-12-24T00:25:09.573Z,11.00
2022-12-24T00:27:36.289Z,10.90
2022-12-24T00:30:03.205Z,10.90
2022-12-24T00:32:29.973Z,10.90
2022-12-24T00:34:56.635Z,10.90
2022-12-24T00:37:23.308Z,10.90
2022-12-24T00:39:49.918Z,11.00
2022-12-24T00:42:16.516Z,10.90
2022-12-24T00:44:43.391Z,11.00
2022-12-24T00:47:12.252Z,10.90
2022-12-24T00:49:39.240Z,10.90
2022-12-24T00:52:06.054Z,10.90
2022-12-24T00:54:32.765Z,10.80
2022-12-24T00:56:59.489Z,10.80
2022-12-24T00:59:26.237Z,10.70
2022-12-24T01:01:53.126Z,10.70
2022-12-24T01:04:39.023Z,10.70
2022-12-24T01:07:05.782Z,10.70
2022-12-24T01:09:32.358Z,10.70
2022-12-24T01:11:59.029Z,10.60
2022-12-24T01:14:25.816Z,10.70
2022-12-24T01:16:52.589Z,10.70
2022-12-24T01:19:19.233Z,10.70
2022-12-24T01:21:45.947Z,10.70
2022-12-24T01:24:16.024Z,10.70
2022-12-24T01:26:43.448Z,10.70
2022-12-24T01:29:10.328Z,10.70
2022-12-24T01:31:37.388Z,10.70
2022-12-24T01:34:04.388Z,10.70
2022-12-24T01:36:31.072Z,10.70
2022-12-24T01:38:57.802Z,10.80
2022-12-24T01:41:43.354Z,10.70
2022-12-24T01:44:22.286Z,10.70
2022-12-24T01:46:50.839Z,10.70
2022-12-24T01:49:21.062Z,10.70
2022-12-24T01:51:56.051Z,10.70
2022-12-24T01:54:31.598Z,10.70
2022-12-24T01:57:06.857Z,10.70
2022-12-24T01:59:52.452Z,10.80
2022-12-24T02:02:37.606Z,10.80
2022-12-24T02:05:12.528Z,10.80
2022-12-24T02:08:04.239Z,10.80
2022-12-24T02:10:47.477Z,10.70
2022-12-24T02:16:30.836Z,10.70
2022-12-24T02:19:04.104Z,10.70
2022-12-24T02:21:36.563Z,10.70
2022-12-24T02:24:23.497Z,10.70
2022-12-24T02:27:15.738Z,10.60
2022-12-24T02:30:07.602Z,10.70
2022-12-24T02:32:47.905Z,10.60
2022-12-24T02:35:19.313Z,10.60
2022-12-24T02:37:53.424Z,10.70
2022-12-24T02:44:07.435Z,10.60
2022-12-24T02:46:34.445Z,10.60
2022-12-24T02:52:03.322Z,10.60
2022-12-24T02:54:37.118Z,10.60
2022-12-24T02:58:08.444Z,10.60
2022-12-24T03:00:56.971Z,10.70
2022-12-24T03:03:26.979Z,10.70
2022-12-24T03:06:02.931Z,10.70
2022-12-24T03:08:42.556Z,10.70
2022-12-24T03:11:11.197Z,10.70
2022-12-24T03:13:38.152Z,10.70
2022-12-24T03:16:07.159Z,10.70
2022-12-24T03:18:37.181Z,10.70
2022-12-24T03:21:07.405Z,10.60
2022-12-24T03:23:34.539Z,10.60
2022-12-24T03:26:04.569Z,10.60
2022-12-24T03:28:31.872Z,10.60
2022-12-24T03:31:01.344Z,10.50
2022-12-24T03:33:28.601Z,10.50
2022-12-24T03:35:55.872Z,10.60
2022-12-24T03:38:22.722Z,10.60
2022-12-24T03:40:49.586Z,10.50
2022-12-24T03:43:19.513Z,10.60
2022-12-24T03:45:50.081Z,10.50
2022-12-24T03:48:20.036Z,10.60
2022-12-24T03:50:46.751Z,10.60
2022-12-24T03:53:13.540Z,10.60
2022-12-24T03:55:40.405Z,10.50
2022-12-24T03:58:07.712Z,10.50
2022-12-24T04:00:34.951Z,10.50
2022-12-24T04:03:02.107Z,10.60
2022-12-24T04:05:29.224Z,10.50
2022-12-24T04:07:56.077Z,10.50
2022-12-24T04:10:23.026Z,10.50
2022-12-24T04:12:49.900Z,10.40
2022-12-24T04:15:16.981Z,10.40
2022-12-24T04:17:43.899Z,10.30
2022-12-24T04:20:11.012Z,10.30
2022-12-24T04:22:38.032Z,10.30
2022-12-24T04:25:05.381Z,10.30
2022-12-24T04:27:32.734Z,10.30
2022-12-24T04:29:59.643Z,10.30
2022-12-24T04:32:29.233Z,10.30
2022-12-24T04:34:56.193Z,10.40
2022-12-24T04:37:23.071Z,10.40
2022-12-24T04:39:50.412Z,10.40
2022-12-24T04:42:17.522Z,10.40
2022-12-24T04:44:44.333Z,10.50
2022-12-24T04:47:11.156Z,10.50
2022-12-24T04:49:37.955Z,10.50
2022-12-24T04:52:05.041Z,10.50
2022-12-24T04:54:31.832Z,10.50
2022-12-24T04:56:58.854Z,10.50
2022-12-24T04:59:25.674Z,10.50
2022-12-24T05:01:52.820Z,10.50
2022-12-24T05:04:19.751Z,10.50
2022-12-24T05:06:46.614Z,10.50
2022-12-24T05:09:13.532Z,10.50
2022-12-24T05:11:40.425Z,10.50
2022-12-24T05:14:07.278Z,10.50
2022-12-24T05:16:34.143Z,10.50
2022-12-24T05:19:01.065Z,10.50
2022-12-24T05:21:27.908Z,10.50
2022-12-24T05:24:13.737Z,10.50
2022-12-24T05:26:49.479Z,10.50
2022-12-24T05:29:16.448Z,10.50
2022-12-24T05:31:45.021Z,10.50
2022-12-24T05:34:12.691Z,10.50
2022-12-24T05:36:39.599Z,10.50
2022-12-24T05:39:11.648Z,10.50
2022-12-24T05:41:42.268Z,10.50
2022-12-24T05:44:09.010Z,10.50
2022-12-24T05:46:35.827Z,10.50
2022-12-24T05:49:02.692Z,10.60
2022-12-24T05:51:29.675Z,10.50
2022-12-24T05:53:56.625Z,10.50
2022-12-24T05:56:24.417Z,10.50
2022-12-24T05:58:52.425Z,10.50
2022-12-24T06:01:19.885Z,10.60
2022-12-24T06:03:47.307Z,10.60
2022-12-24T06:06:15.640Z,10.60
2022-12-24T06:08:42.696Z,10.60
2022-12-24T06:11:11.413Z,10.60
2022-12-24T06:13:39.011Z,10.60
2022-12-24T06:16:07.119Z,10.60
2022-12-24T06:18:35.265Z,10.60
2022-12-24T06:21:02.300Z,10.60
2022-12-24T06:23:29.930Z,10.60
2022-12-24T06:25:58.330Z,10.60
2022-12-24T06:28:25.212Z,10.60
2022-12-24T06:30:57.130Z,10.60
2022-12-24T06:33:27.744Z,10.60
2022-12-24T06:35:54.878Z,10.50
2022-12-24T06:38:22.146Z,10.60
2022-12-24T06:40:49.468Z,10.60
2022-12-24T06:43:16.450Z,10.50
2022-12-24T06:45:47.563Z,10.60
2022-12-24T06:48:15.461Z,10.60
2022-12-24T06:50:42.766Z,10.60
2022-12-24T06:53:09.748Z,10.50
2022-12-24T06:55:36.855Z,10.50
2022-12-24T06:58:04.397Z,10.50
2022-12-24T07:00:31.355Z,10.50
2022-12-24T07:02:58.687Z,10.50
2022-12-24T07:05:25.733Z,10.40
2022-12-24T07:07:52.689Z,10.40
2022-12-24T07:10:20.135Z,10.40
2022-12-24T07:12:47.781Z,10.40
2022-12-24T07:15:15.175Z,10.40
2022-12-24T07:17:42.429Z,10.40
2022-12-24T07:20:11.561Z,10.40
2022-12-24T07:22:38.962Z,10.40
2022-12-24T07:25:06.239Z,10.40
2022-12-24T07:27:33.101Z,10.40
2022-12-24T07:29:59.842Z,10.50
2022-12-24T07:32:26.668Z,10.50
2022-12-24T07:34:53.445Z,10.50
2022-12-24T07:37:20.388Z,10.50
2022-12-24T07:39:47.333Z,10.50
2022-12-24T07:42:14.205Z,10.50
2022-12-24T07:44:41.060Z,10.50
2022-12-24T07:47:08.095Z,10.50
2022-12-24T07:49:36.240Z,10.50
2022-12-24T07:52:04.123Z,10.50
2022-12-24T07:54:31.298Z,10.50
2022-12-24T07:56:58.095Z,10.60
2022-12-24T07:59:25.535Z,10.60
2022-12-24T08:01:52.521Z,10.60
2022-12-24T08:04:19.508Z,10.60
2022-12-24T08:06:46.456Z,10.60
2022-12-24T08:09:14.333Z,10.60
2022-12-24T08:11:46.176Z,10.60
2022-12-24T08:14:16.700Z,10.60
2022-12-24T08:16:43.579Z,10.60
2022-12-24T08:19:10.500Z,10.60
2022-12-24T08:21:37.236Z,10.60
2022-12-24T08:24:04.267Z,10.60
2022-12-24T08:26:31.219Z,10.60
2022-12-24T08:28:58.207Z,10.60
2022-12-24T08:31:26.975Z,10.60
2022-12-24T08:33:54.491Z,10.60
2022-12-24T08:36:21.487Z,10.60
2022-12-24T08:38:48.482Z,10.70
2022-12-24T08:41:15.631Z,10.70
2022-12-24T08:43:42.819Z,10.70
2022-12-24T08:46:10.044Z,10.70
2022-12-24T08:48:37.018Z,10.70
2022-12-24T08:51:10.010Z,10.70
2022-12-24T08:53:37.758Z,10.70
2022-12-24T08:56:05.172Z,10.70
2022-12-24T08:58:32.715Z,10.80
2022-12-24T09:01:00.408Z,10.80
2022-12-24T09:03:28.428Z,10.80
2022-12-24T09:05:56.069Z,10.90
2022-12-24T09:08:22.979Z,10.90
2022-12-24T09:10:49.940Z,10.90
2022-12-24T09:13:16.926Z,10.90
2022-12-24T09:15:52.485Z,10.90
2022-12-24T09:18:19.300Z,10.90
2022-12-24T09:20:47.102Z,10.90
2022-12-24T09:23:14.687Z,10.90
2022-12-24T09:25:42.275Z,10.90
2022-12-24T09:28:09.536Z,11.00
2022-12-24T09:30:36.918Z,11.00
2022-12-24T09:33:03.727Z,11.00
2022-12-24T09:35:30.314Z,11.00
2022-12-24T09:38:02.929Z,11.00
2022-12-24T09:40:35.604Z,11.00
2022-12-24T09:43:04.671Z,11.00
2022-12-24T09:45:33.138Z,11.00
2022-12-24T09:48:20.109Z,11.00
2022-12-24T09:50:54.848Z,11.00
2022-12-24T09:53:21.604Z,11.00
2022-12-24T09:55:54.561Z,11.10
2022-12-24T09:58:41.507Z,11.00
2022-12-24T10:01:12.083Z,11.10
2022-12-24T10:03:38.913Z,11.10
2022-12-24T10:06:09.406Z,11.10
2022-12-24T10:08:43.829Z,11.20
2022-12-24T10:11:10.440Z,11.20
2022-12-24T10:14:01.495Z,11.20
2022-12-24T10:16:33.138Z,11.20
2022-12-24T10:19:05.411Z,11.30
2022-12-24T10:21:37.503Z,11.30
2022-12-24T10:24:13.770Z,11.30
2022-12-24T10:26:51.135Z,11.30
2022-12-24T10:29:19.944Z,11.30
2022-12-24T10:31:53.412Z,11.40
2022-12-24T10:34:23.001Z,11.40
2022-12-24T10:36:50.041Z,11.30
2022-12-24T10:39:21.664Z,11.30
2022-12-24T10:41:49.797Z,11.30
2022-12-24T10:44:17.947Z,11.30
2022-12-24T10:46:46.012Z,11.30
2022-12-24T10:49:14.840Z,11.40
2022-12-24T10:51:52.790Z,11.40
2022-12-24T10:54:26.599Z,11.40
2022-12-24T10:56:57.039Z,11.40
2022-12-24T10:59:25.757Z,11.40
2022-12-24T11:01:53.070Z,11.40
2022-12-24T11:04:21.821Z,11.40
2022-12-24T11:07:15.340Z,11.40
2022-12-24T11:09:43.289Z,11.50
2022-12-24T11:12:22.208Z,11.50
2022-12-24T11:14:59.632Z,11.50
2022-12-24T11:17:26.344Z,11.50
2022-12-24T11:19:53.358Z,11.60
2022-12-24T11:22:23.157Z,11.60
2022-12-24T11:24:58.085Z,11.60
2022-12-24T11:27:28.150Z,11.60
2022-12-24T11:30:15.048Z,11.60
2022-12-24T11:32:42.668Z,11.50
2022-12-24T11:35:15.410Z,11.50
2022-12-24T11:37:42.658Z,11.50
2022-12-24T11:40:20.350Z,11.50
2022-12-24T11:42:47.497Z,11.50
2022-12-24T11:45:24.877Z,11.50
2022-12-24T11:47:54.955Z,11.50
2022-12-24T11:53:03.538Z,11.50
2022-12-24T11:55:51.297Z,11.60
2022-12-24T11:58:33.185Z,11.60
2022-12-24T12:01:15.521Z,11.60
2022-12-24T12:03:48.248Z,11.60
2022-12-24T12:06:35.678Z,11.60
2022-12-24T12:09:20.077Z,11.60
2022-12-24T12:11:50.307Z,11.50
2022-12-24T12:14:22.716Z,11.50
2022-12-24T12:17:01.188Z,11.50
2022-12-24T12:19:29.416Z,11.50
2022-12-24T12:21:56.209Z,11.50
2022-12-24T12:24:31.780Z,11.50
2022-12-24T12:27:19.275Z,11.50
2022-12-24T12:29:50.970Z,11.50
2022-12-24T12:32:41.092Z,11.60
2022-12-24T12:35:16.962Z,11.60
2022-12-24T12:37:45.605Z,11.70
2022-12-24T12:40:13.945Z,11.70
2022-12-24T12:42:42.222Z,11.70
2022-12-24T12:45:22.734Z,11.70
2022-12-24T12:47:54.368Z,11.70
2022-12-24T12:50:33.760Z,11.70
2022-12-24T12:53:03.497Z,11.70
2022-12-24T12:55:36.792Z,11.80
2022-12-24T12:58:05.822Z,11.80
2022-12-24T13:00:35.383Z,11.90
2022-12-24T13:03:11.456Z,11.90
2022-12-24T13:05:43.632Z,11.90
2022-12-24T13:08:29.249Z,11.80
2022-12-24T13:10:55.981Z,11.80
2022-12-24T13:13:36.527Z,11.80
2022-12-24T13:16:12.039Z,11.80
2022-12-24T13:18:48.652Z,11.80
2022-12-24T13:21:20.963Z,11.80
2022-12-24T13:23:48.065Z,11.70
2022-12-24T13:26:15.781Z,11.70
2022-12-24T13:28:43.137Z,11.70
2022-12-24T13:31:24.504Z,11.70
2022-12-24T13:33:53.333Z,11.70
2022-12-24T13:36:21.423Z,11.60
2022-12-24T13:38:57.948Z,11.60
2022-12-24T13:41:39.444Z,11.60
2022-12-24T13:44:06.416Z,11.60
2022-12-24T13:46:52.099Z,11.60
2022-12-24T13:49:19.044Z,11.70
2022-12-24T13:51:45.857Z,11.70
2022-12-24T13:54:13.633Z,11.70
2022-12-24T13:56:41.744Z,11.70
2022-12-24T13:59:27.067Z,11.70
2022-12-24T14:01:56.369Z,11.70
2022-12-24T14:04:26.343Z,11.70
2022-12-24T14:06:54.444Z,11.70
2022-12-24T14:09:23.252Z,11.70
2022-12-24T14:12:16.476Z,11.60
2022-12-24T14:14:43.599Z,11.60
2022-12-24T14:17:24.573Z,11.60
2022-12-24T14:19:56.011Z,11.50
2022-12-24T14:22:22.652Z,11.50
2022-12-24T14:25:01.124Z,11.50
2022-12-24T14:27:27.786Z,11.40
2022-12-24T14:30:02.327Z,11.40
2022-12-24T14:32:34.207Z,11.40
2022-12-24T14:35:13.426Z,11.40
2022-12-24T14:37:41.711Z,11.30
2022-12-24T14:40:09.030Z,11.30
2022-12-24T14:42:46.631Z,11.20
2022-12-24T14:45:18.851Z,11.20
2022-12-24T14:47:59.913Z,11.10
2022-12-24T14:50:45.203Z,11.10
2022-12-24T14:53:20.030Z,11.00
2022-12-24T14:55:47.897Z,10.90
2022-12-24T14:58:33.629Z,10.80
2022-12-24T15:01:01.502Z,10.80
2022-12-24T15:03:32.207Z,10.70
2022-12-24T15:06:00.607Z,10.70
2022-12-24T15:08:32.308Z,10.70
2022-12-24T15:11:01.471Z,10.60
2022-12-24T15:13:38.850Z,10.60
2022-12-24T15:16:09.636Z,10.60
2022-12-24T15:18:38.492Z,10.60
2022-12-24T15:21:07.082Z,10.50
2022-12-24T15:23:36.372Z,10.50
2022-12-24T15:26:09.651Z,10.40
2022-12-24T15:28:38.039Z,10.40
2022-12-24T15:31:10.783Z,10.30
2022-12-24T15:33:38.561Z,10.30
2022-12-24T15:36:06.510Z,10.30
2022-12-24T15:38:34.948Z,10.30
2022-12-24T15:41:03.191Z,10.30
2022-12-24T15:43:30.399Z,10.30
2022-12-24T15:45:57.242Z,10.30
2022-12-24T15:48:25.733Z,10.30
2022-12-24T15:50:54.576Z,10.30
2022-12-24T15:53:32.299Z,10.30
2022-12-24T15:56:03.683Z,10.30
2022-12-24T15:58:31.751Z,10.40
2022-12-24T16:01:01.463Z,10.40
2022-12-24T16:03:28.381Z,10.30
2022-12-24T16:06:01.925Z,10.40
2022-12-24T16:08:30.130Z,10.40
2022-12-24T16:11:11.250Z,10.40
2022-12-24T16:13:42.627Z,10.30
2022-12-24T16:16:11.424Z,10.30
2022-12-24T16:18:57.742Z,10.30
2022-12-24T16:21:24.569Z,10.20
2022-12-24T16:23:52.949Z,10.20
2022-12-24T16:26:20.024Z,10.20
2022-12-24T16:28:46.900Z,10.10
2022-12-24T16:31:18.871Z,10.10
2022-12-24T16:33:46.321Z,10.10
2022-12-24T16:36:14.368Z,10.10
2022-12-24T16:39:14.783Z,10.10
2022-12-24T16:42:06.803Z,10.00
2022-12-24T16:44:33.786Z,10.00
2022-12-24T16:47:02.229Z,9.90
2022-12-24T16:49:32.845Z,9.70
2022-12-24T16:52:02.925Z,9.70
2022-12-24T16:54:33.565Z,9.70
2022-12-24T16:57:04.418Z,9.60
2022-12-24T16:59:32.741Z,9.50
2022-12-24T17:02:00.768Z,9.50
2022-12-24T17:04:35.218Z,9.50
2022-12-24T17:07:09.090Z,9.40
2022-12-24T17:09:37.152Z,9.30
2022-12-24T17:12:09.139Z,9.30
2022-12-24T17:14:36.696Z,9.30
2022-12-24T17:17:04.878Z,9.20
2022-12-24T17:19:41.970Z,9.20
2022-12-24T17:22:10.043Z,9.20
2022-12-24T17:24:37.617Z,9.10
2022-12-24T17:27:05.307Z,9.10
2022-12-24T17:29:34.784Z,9.10
2022-12-24T17:32:06.192Z,9.00
2022-12-24T17:34:34.920Z,9.00
2022-12-24T17:37:02.259Z,9.00
2022-12-24T17:39:30.244Z,9.00
2022-12-24T17:41:57.346Z,9.00
2022-12-24T17:44:25.039Z,9.00
2022-12-24T17:46:53.206Z,9.00
2022-12-24T17:49:21.025Z,8.90
2022-12-24T17:51:51.706Z,8.90
2022-12-24T17:54:18.987Z,8.90
2022-12-24T17:56:45.781Z,8.80
2022-12-24T17:59:12.916Z,8.80
2022-12-24T18:01:40.139Z,8.80
2022-12-24T18:04:07.867Z,8.80
2022-12-24T18:06:34.617Z,8.70
2022-12-24T18:09:01.385Z,8.70
2022-12-24T18:11:32.862Z,8.70
2022-12-24T18:14:00.967Z,8.60
2022-12-24T18:16:29.048Z,8.60
2022-12-24T18:18:55.842Z,8.50
2022-12-24T18:21:24.091Z,8.40
2022-12-24T18:23:52.052Z,8.40
2022-12-24T18:26:19.558Z,8.40
2022-12-24T18:28:47.273Z,8.30
2022-12-24T18:31:16.056Z,8.30
2022-12-24T18:33:43.740Z,8.30
2022-12-24T18:36:10.860Z,8.20
2022-12-24T18:38:37.924Z,8.20
2022-12-24T18:41:06.149Z,8.20
2022-12-24T18:43:32.962Z,8.10
2022-12-24T18:45:59.685Z,8.10
2022-12-24T18:48:26.472Z,8.10
2022-12-24T18:50:57.632Z,8.00
2022-12-24T18:53:25.918Z,8.00
2022-12-24T18:55:52.935Z,8.00
2022-12-24T18:58:20.161Z,8.00
2022-12-24T19:00:47.196Z,8.00
2022-12-24T19:03:16.621Z,8.00
2022-12-24T19:05:43.670Z,8.00
2022-12-24T19:08:37.826Z,8.00
2022-12-24T19:10:57.316Z,8.00
2022-12-24T19:13:24.244Z,8.00
2022-12-24T19:15:51.038Z,8.00
2022-12-24T19:18:17.860Z,7.90
2022-12-24T19:20:44.609Z,7.90
2022-12-24T19:23:11.331Z,7.90
2022-12-24T19:25:38.083Z,7.90
2022-12-24T19:28:10.962Z,7.90
2022-12-24T19:30:38.809Z,7.90
2022-12-24T19:33:05.889Z,7.90
2022-12-24T19:35:32.980Z,7.90
2022-12-24T19:38:00.015Z,7.80
2022-12-24T19:40:27.273Z,7.80
2022-12-24T19:42:54.479Z,7.80
2022-12-24T19:45:22.366Z,7.80
2022-12-24T19:47:49.939Z,7.80
2022-12-24T19:50:17.378Z,7.70
2022-12-24T19:52:44.335Z,7.70
2022-12-24T19:55:11.300Z,7.70
2022-12-24T19:57:39.557Z,7.70
2022-12-24T20:00:07.490Z,7.70
2022-12-24T20:02:38.781Z,7.70
2022-12-24T20:05:06.131Z,7.70
2022-12-24T20:07:32.878Z,7.70
2022-12-24T20:09:59.629Z,7.70
2022-12-24T20:12:26.513Z,7.70
2022-12-24T20:14:56.962Z,7.70
2022-12-24T20:17:23.840Z,7.70
2022-12-24T20:19:50.782Z,7.70
2022-12-24T20:22:17.484Z,7.70
2022-12-24T20:24:44.228Z,7.80
2022-12-24T20:27:11.736Z,7.80
2022-12-24T20:29:38.552Z,7.80
2022-12-24T20:32:06.013Z,7.80
2022-12-24T20:34:33.823Z,7.90
2022-12-24T20:37:00.593Z,7.90
2022-12-24T20:39:28.834Z,7.90
2022-12-24T20:41:55.725Z,7.90
2022-12-24T20:44:22.385Z,7.90
2022-12-24T20:46:49.168Z,7.90
2022-12-24T20:49:16.241Z,8.00
2022-12-24T20:51:43.964Z,8.00
2022-12-24T20:54:11.259Z,8.00
2022-12-24T20:56:38.162Z,8.00
2022-12-24T20:59:04.956Z,8.10
2022-12-24T21:01:32.169Z,8.10
2022-12-24T21:04:04.459Z,8.10
2022-12-24T21:06:32.412Z,8.10
2022-12-24T21:08:59.116Z,8.20
2022-12-24T21:11:44.507Z,8.20
2022-12-24T21:14:11.547Z,8.20
2022-12-24T21:16:38.952Z,8.20
2022-12-24T21:19:07.910Z,8.20
2022-12-24T21:21:34.908Z,8.20
2022-12-24T21:24:02.252Z,8.20
2022-12-24T21:26:29.023Z,8.20
2022-12-24T21:28:55.845Z,8.20
2022-12-24T21:31:22.667Z,8.20
2022-12-24T21:33:49.595Z,8.20
2022-12-24T21:36:16.631Z,8.20
2022-12-24T21:38:43.475Z,8.20
2022-12-24T21:41:12.372Z,8.20
2022-12-24T21:43:39.579Z,8.20
2022-12-24T21:46:10.237Z,8.20
2022-12-24T21:48:56.162Z,8.20
2022-12-24T21:51:23.769Z,8.20
2022-12-24T21:54:09.318Z,8.20
2022-12-24T21:56:56.107Z,8.20
2022-12-24T21:59:26.594Z,8.20
2022-12-24T22:01:54.468Z,8.20
2022-12-24T22:04:21.425Z,8.20
2022-12-24T22:07:07.060Z,8.20
2022-12-24T22:09:52.706Z,8.20
2022-12-24T22:12:19.874Z,8.20
2022-12-24T22:14:46.917Z,8.20
2022-12-24T22:17:15.310Z,8.10
2022-12-24T22:19:45.168Z,8.10
2022-12-24T22:22:12.006Z,8.10
2022-12-24T22:24:38.901Z,8.10
2022-12-24T22:27:06.033Z,8.10
2022-12-24T22:29:35.567Z,8.10
2022-12-24T22:32:02.684Z,8.10
2022-12-24T22:34:29.815Z,8.10
2022-12-24T22:36:56.631Z,8.10
2022-12-24T22:39:23.340Z,8.10
2022-12-24T22:41:52.092Z,8.00
2022-12-24T22:44:18.969Z,8.10
2022-12-24T22:46:45.872Z,8.10
2022-12-24T22:49:21.469Z,8.10
2022-12-24T22:51:48.516Z,8.10
2022-12-24T22:54:20.360Z,8.10
2022-12-24T22:56:49.681Z,8.10
2022-12-24T22:59:16.591Z,8.10
2022-12-24T23:01:45.614Z,8.10
2022-12-24T23:04:13.354Z,8.10
2022-12-24T23:06:40.907Z,8.10
2022-12-24T23:09:09.120Z,8.10
2022-12-24T23:11:36.266Z,8.00
2022-12-24T23:14:21.939Z,8.00
2022-12-24T23:16:49.056Z,8.00
2022-12-24T23:19:15.984Z,8.00
2022-12-24T23:21:42.998Z,7.90
2022-12-24T23:24:12.067Z,7.90
2022-12-24T23:26:40.016Z,7.90
2022-12-24T23:29:09.427Z,7.90
2022-12-24T23:31:37.893Z,7.90
2022-12-24T23:34:05.380Z,7.80
2022-12-24T23:36:32.629Z,7.80
2022-12-24T23:38:59.412Z,7.80
2022-12-24T23:41:26.900Z,7.70
2022-12-24T23:43:54.043Z,7.70
2022-12-24T23:46:22.782Z,7.70
2022-12-24T23:48:52.980Z,7.70
2022-12-24T23:51:23.490Z,7.60
2022-12-24T23:53:51.720Z,7.60
2022-12-24T23:56:19.444Z,7.60
2022-12-24T23:58:47.038Z,7.60
